Citadel — PBOK — position and weather

sailwx.info

Track history (hours):
 
Tides and Currents Weather Stations Pressure Air Temp Water Temp Dewpoint Dewpoint Depression Visibility Wind Speed Wind Dir Waves Ship Positions

Citadel

Last reported at 2015-Aug-31 19:33 UTC. Time now 2015-Aug-31 19:52 UTC.
Position N 49°12' W 000°19'.

Length 111 m; draft 4 m.

Type: Cargo ship. MMSI: 245977000.

Date/timePositionNaut miles runAvg speedWind from/ knotsBaromVisibWave heightAir tempDewpointWater temp
2015-Aug-31 19:33N 49°12' W 000°19'0 0.0
2015-Aug-31 18:33N 49°12' W 000°19'0 0.0
2015-Aug-31 17:33N 49°12' W 000°19'0 0.0
2015-Aug-31 16:33N 49°12' W 000°19'0 0.0
2015-Aug-31 15:33N 49°12' W 000°19'0 0.0
2015-Aug-31 14:33N 49°12' W 000°19'0 0.0
2015-Aug-31 13:33N 49°12' W 000°19'0 0.0
2015-Aug-31 12:33N 49°12' W 000°19'0 0.0
2015-Aug-31 11:33N 49°12' W 000°19'0 0.0
2015-Aug-31 10:33N 49°12' W 000°19'0 0.0
2015-Aug-31 09:33N 49°12' W 000°19'6 5.7
2015-Aug-31 08:33N 49°17' W 000°15'5 5.4
2015-Aug-31 07:33N 49°22' W 000°16'1111.1
2015-Aug-31 06:33N 49°28' W 000°31'1010.1
2015-Aug-31 05:33N 49°34' W 000°44'7 7.2
2015-Aug-31 04:33N 49°38' W 000°53'7 7.4
2015-Aug-31 03:33N 49°42' W 001°02'  
2015-Aug-28 02:19N 39°38' W 009°49'911.2
2015-Aug-28 01:33N 39°30' W 009°49'1111.0
2015-Aug-28 00:33N 39°18' W 009°50'1010.5
2015-Aug-27 23:33N 39°08' W 009°50'1010.4
2015-Aug-27 22:33N 38°58' W 009°50'1110.5
2015-Aug-27 21:33N 38°47' W 009°50'1010.4
2015-Aug-27 20:33N 38°37' W 009°48'1010.3
2015-Aug-27 19:33N 38°27' W 009°46'1110.6
2015-Aug-27 18:33N 38°16' W 009°43'1110.6
2015-Aug-27 17:34N 38°06' W 009°40'1110.8
2015-Aug-27 16:33N 37°55' W 009°38'1110.6
2015-Aug-27 15:33N 37°45' W 009°34'1010.4
2015-Aug-27 14:33N 37°35' W 009°31'1410.5
2015-Aug-27 13:13N 37°21' W 009°28'2110.5
2015-Aug-27 11:13N 37°01' W 009°22'1010.1
2015-Aug-27 10:16N 36°52' W 009°18'1710.0
2015-Aug-27 08:34N 36°43' W 009°00'1010.5
2015-Aug-27 07:34N 36°40' W 008°48'1110.7
2015-Aug-27 06:33N 36°36' W 008°35'1111.1
2015-Aug-27 05:33N 36°33' W 008°22'1111.2
2015-Aug-27 04:33N 36°29' W 008°09'1111.1
2015-Aug-27 03:33N 36°26' W 007°56'  
2015-Aug-23 20:25N 35°59' E 000°03'0 0.0
2015-Aug-23 17:24N 35°59' E 000°03'0 0.0
2015-Aug-23 16:30N 35°59' E 000°03'0 0.0
2015-Aug-23 01:24N 35°59' E 000°03'0 0.0
2015-Aug-22 22:17N 35°59' E 000°03'0 0.0
2015-Aug-22 21:29N 35°59' E 000°03'0 0.0
2015-Aug-22 20:27N 35°59' E 000°03'0 0.0
2015-Aug-22 18:21N 35°59' E 000°03'0 0.0
2015-Aug-22 17:32N 35°59' E 000°03'0 0.0
2015-Aug-22 15:33N 35°59' E 000°03'0 0.0
2015-Aug-22 08:30N 35°59' E 000°03'0 0.0
2015-Aug-22 04:33N 35°59' E 000°03'0 0.0
2015-Aug-22 02:27N 35°59' E 000°03'0 0.0
2015-Aug-22 01:33N 35°59' E 000°03'0 0.0
2015-Aug-22 00:31N 35°59' E 000°03'0 0.0
2015-Aug-21 23:20N 35°59' E 000°03'0 0.1
2015-Aug-21 21:33N 35°59' E 000°03'0 0.0
2015-Aug-21 20:28N 35°59' E 000°03'  
Track history (hours):
 
Tides and Currents Weather Stations Pressure Air Temp Water Temp Dewpoint Dewpoint Depression Visibility Wind Speed Wind Dir Waves Ship Positions

Citadel

Last reported at 2015-Aug-31 19:33 UTC. Time now 2015-Aug-31 19:52 UTC.
Position N 49°12' W 000°19'.

Length 111 m; draft 4 m.

Type: Cargo ship. MMSI: 245977000.

Date/timePositionNaut miles runAvg speedWind from/ knotsBaromVisibWave heightAir tempDewpointWater temp
2015-Aug-31 19:33N 49°12' W 000°19'0 0.0
2015-Aug-31 18:33N 49°12' W 000°19'0 0.0
2015-Aug-31 17:33N 49°12' W 000°19'0 0.0
2015-Aug-31 16:33N 49°12' W 000°19'0 0.0
2015-Aug-31 15:33N 49°12' W 000°19'0 0.0
2015-Aug-31 14:33N 49°12' W 000°19'0 0.0
2015-Aug-31 13:33N 49°12' W 000°19'0 0.0
2015-Aug-31 12:33N 49°12' W 000°19'0 0.0
2015-Aug-31 11:33N 49°12' W 000°19'0 0.0
2015-Aug-31 10:33N 49°12' W 000°19'0 0.0
2015-Aug-31 09:33N 49°12' W 000°19'6 5.7
2015-Aug-31 08:33N 49°17' W 000°15'5 5.4
2015-Aug-31 07:33N 49°22' W 000°16'1111.1
2015-Aug-31 06:33N 49°28' W 000°31'1010.1
2015-Aug-31 05:33N 49°34' W 000°44'7 7.2
2015-Aug-31 04:33N 49°38' W 000°53'7 7.4
2015-Aug-31 03:33N 49°42' W 001°02'  
2015-Aug-28 02:19N 39°38' W 009°49'911.2
2015-Aug-28 01:33N 39°30' W 009°49'1111.0
2015-Aug-28 00:33N 39°18' W 009°50'1010.5
2015-Aug-27 23:33N 39°08' W 009°50'1010.4
2015-Aug-27 22:33N 38°58' W 009°50'1110.5
2015-Aug-27 21:33N 38°47' W 009°50'1010.4
2015-Aug-27 20:33N 38°37' W 009°48'1010.3
2015-Aug-27 19:33N 38°27' W 009°46'1110.6
2015-Aug-27 18:33N 38°16' W 009°43'1110.6
2015-Aug-27 17:34N 38°06' W 009°40'1110.8
2015-Aug-27 16:33N 37°55' W 009°38'1110.6
2015-Aug-27 15:33N 37°45' W 009°34'1010.4
2015-Aug-27 14:33N 37°35' W 009°31'1410.5
2015-Aug-27 13:13N 37°21' W 009°28'2110.5
2015-Aug-27 11:13N 37°01' W 009°22'1010.1
2015-Aug-27 10:16N 36°52' W 009°18'1710.0
2015-Aug-27 08:34N 36°43' W 009°00'1010.5
2015-Aug-27 07:34N 36°40' W 008°48'1110.7
2015-Aug-27 06:33N 36°36' W 008°35'1111.1
2015-Aug-27 05:33N 36°33' W 008°22'1111.2
2015-Aug-27 04:33N 36°29' W 008°09'1111.1
2015-Aug-27 03:33N 36°26' W 007°56'  
2015-Aug-23 20:25N 35°59' E 000°03'0 0.0
2015-Aug-23 17:24N 35°59' E 000°03'0 0.0
2015-Aug-23 16:30N 35°59' E 000°03'0 0.0
2015-Aug-23 01:24N 35°59' E 000°03'0 0.0
2015-Aug-22 22:17N 35°59' E 000°03'0 0.0
2015-Aug-22 21:29N 35°59' E 000°03'0 0.0
2015-Aug-22 20:27N 35°59' E 000°03'0 0.0
2015-Aug-22 18:21N 35°59' E 000°03'0 0.0
2015-Aug-22 17:32N 35°59' E 000°03'0 0.0
2015-Aug-22 15:33N 35°59' E 000°03'0 0.0
2015-Aug-22 08:30N 35°59' E 000°03'0 0.0
2015-Aug-22 04:33N 35°59' E 000°03'0 0.0
2015-Aug-22 02:27N 35°59' E 000°03'0 0.0
2015-Aug-22 01:33N 35°59' E 000°03'0 0.0
2015-Aug-22 00:31N 35°59' E 000°03'0 0.0
2015-Aug-21 23:20N 35°59' E 000°03'0 0.1
2015-Aug-21 21:33N 35°59' E 000°03'0 0.0
2015-Aug-21 20:28N 35°59' E 000°03'  

Dump ship's entire track history